createdAt,value
2018-11-01T00:30:51.355Z,16
2018-11-01T00:35:32.471Z,17
2018-11-01T00:40:32.550Z,17
2018-11-01T00:45:32.898Z,19
2018-11-01T00:50:32.473Z,19
2018-11-01T00:55:32.528Z,19
2018-11-01T01:00:32.951Z,32
2018-11-01T01:05:32.962Z,32
2018-11-01T01:10:34.206Z,32
2018-11-01T01:15:32.957Z,32
2018-11-01T01:20:34.182Z,32
2018-11-01T01:25:33.184Z,32
2018-11-01T01:30:32.874Z,32
2018-11-01T01:35:32.980Z,32
2018-11-01T01:40:33.390Z,32
2018-11-01T01:45:32.596Z,32
2018-11-01T01:50:32.843Z,32
2018-11-01T01:55:32.947Z,32
2018-11-01T02:00:32.953Z,32
2018-11-01T02:05:32.615Z,32
2018-11-01T02:10:34.084Z,32
2018-11-01T02:15:32.696Z,32
2018-11-01T02:20:33.075Z,26
2018-11-01T02:25:33.488Z,19
2018-11-01T02:30:32.757Z,19
2018-11-01T02:35:32.641Z,19
2018-11-01T02:40:33.940Z,19
2018-11-01T02:45:32.663Z,19
2018-11-01T02:50:32.744Z,19
2018-11-01T02:55:33.328Z,19
2018-11-01T03:00:33.119Z,19
2018-11-01T03:05:32.789Z,19
2018-11-01T03:10:34.112Z,19
2018-11-01T03:15:32.661Z,19
2018-11-01T03:20:32.924Z,19
2018-11-01T03:25:33.532Z,19
2018-11-01T03:30:32.639Z,19
2018-11-01T03:35:32.787Z,19
2018-11-01T03:40:33.314Z,19
2018-11-01T03:45:32.397Z,19
2018-11-01T03:50:32.723Z,19
2018-11-01T03:55:32.723Z,19
2018-11-01T04:00:33.132Z,19
2018-11-01T04:05:32.535Z,19
2018-11-01T04:10:33.255Z,19
2018-11-01T04:15:32.692Z,19
2018-11-01T04:20:32.533Z,19
2018-11-01T04:25:34.379Z,19
2018-11-01T04:30:32.349Z,19
2018-11-01T04:35:32.267Z,19
2018-11-01T04:40:33.168Z,19
2018-11-01T04:45:32.419Z,19
2018-11-01T04:50:32.572Z,19
2018-11-01T04:55:33.570Z,19
2018-11-01T05:00:33.337Z,19
2018-11-01T05:05:32.382Z,19
2018-11-01T05:10:33.568Z,19
2018-11-01T05:15:32.107Z,19
2018-11-01T05:20:32.196Z,19
2018-11-01T05:25:32.750Z,19
2018-11-01T05:30:32.245Z,19
2018-11-01T05:35:32.165Z,19
2018-11-01T05:40:33.351Z,19
2018-11-01T05:45:32.630Z,19
2018-11-01T05:50:32.178Z,19
2018-11-01T05:55:33.640Z,19
2018-11-01T06:00:32.652Z,19
2018-11-01T06:05:32.798Z,19
2018-11-01T06:10:32.892Z,19
2018-11-01T06:15:32.619Z,19
2018-11-01T06:20:33.504Z,19
2018-11-01T06:25:33.171Z,19
2018-11-01T06:30:32.003Z,19
2018-11-01T06:35:32.287Z,19
2018-11-01T06:40:34.594Z,19
2018-11-01T06:45:34.256Z,19
2018-11-01T06:50:32.725Z,19
2018-11-01T06:55:35.110Z,19
2018-11-01T07:00:32.824Z,19
2018-11-01T07:05:32.897Z,19
2018-11-01T07:10:36.066Z,19
2018-11-01T07:15:32.152Z,19
2018-11-01T07:20:32.548Z,19
2018-11-01T07:25:32.270Z,19
2018-11-01T07:30:32.273Z,19
2018-11-01T07:35:31.755Z,19
2018-11-01T07:40:32.192Z,19
2018-11-01T07:45:32.334Z,19
2018-11-01T07:50:32.290Z,19
2018-11-01T07:55:32.195Z,19
2018-11-01T08:00:32.436Z,19
2018-11-01T08:05:32.173Z,19
2018-11-01T08:10:32.442Z,19
2018-11-01T08:15:31.782Z,19
2018-11-01T08:35:33.785Z,20
2018-11-01T08:40:31.844Z,20
2018-11-01T22:29:45.344Z,-1
2018-11-01T22:34:43.073Z,-1
2018-11-01T22:39:42.693Z,-1
2018-11-01T22:44:42.888Z,-1
2018-11-01T22:49:43.060Z,-1
2018-11-01T22:54:42.698Z,-1
2018-11-01T22:59:42.889Z,-1
2018-11-01T23:04:42.641Z,-1
2018-11-01T23:09:42.755Z,-1
2018-11-01T23:19:44.458Z,20
2018-11-01T23:24:42.889Z,48
2018-11-01T23:29:42.669Z,62
2018-11-01T23:34:42.903Z,62
2018-11-01T23:39:42.814Z,50
2018-11-01T23:44:42.960Z,76
2018-11-01T23:49:42.571Z,76
2018-11-01T23:54:42.904Z,76
2018-11-01T23:59:42.710Z,76
